Time;durP1;ratioP1;P1;durP2;ratioP2;P2;SDS_P1;SDS_P2;PMS_P1;PMS_P2;Temp;Humidity;BMP_temperature;BMP_pressure;BME280_temperature;BME280_humidity;BME280_pressure;Samples;Min_cycle;Max_cycle;Signal;HPM_P1;HPM_P2
2024/01/04 00:00:32;;;;;;;4.30;2.10;;;12.00;99.90;;;;;;4953942;29;20051;-56
2024/01/04 00:02:58;;;;;;;12.00;5.18;;;12.00;99.90;;;;;;4921971;29;20502;-56
2024/01/04 00:05:24;;;;;;;9.60;4.00;;;12.10;99.90;;;;;;5199907;23;20060;-56
2024/01/04 00:07:50;;;;;;;11.60;5.10;;;12.10;99.90;;;;;;4974525;28;20043;-56
2024/01/04 00:10:17;;;;;;;17.60;7.03;;;12.20;99.90;;;;;;4973447;28;20118;-56
2024/01/04 00:12:48;;;;;;;26.98;11.50;;;12.20;99.90;;;;;;4957175;28;20042;-56
2024/01/04 00:15:14;;;;;;;4.63;2.33;;;12.20;99.90;;;;;;4975721;28;20105;-56
2024/01/04 00:17:40;;;;;;;5.60;2.38;;;12.10;99.90;;;;;;4975397;28;20110;-57
2024/01/04 00:20:06;;;;;;;6.32;3.47;;;12.10;99.90;;;;;;4975279;28;20069;-56
2024/01/04 00:22:32;;;;;;;11.43;7.97;;;12.20;99.90;;;;;;4975570;28;20031;-56
2024/01/04 00:24:58;;;;;;;13.43;8.32;;;12.30;99.90;;;;;;4975292;28;20110;-57
2024/01/04 00:27:24;;;;;;;7.82;4.78;;;12.20;99.90;;;;;;4975510;28;20062;-56
2024/01/04 00:29:50;;;;;;;15.38;7.18;;;;;;;;;;4975214;28;20109;-56
2024/01/04 00:32:15;;;;;;;10.85;6.03;;;11.90;99.90;;;;;;4975267;28;20027;-56
2024/01/04 00:34:41;;;;;;;17.00;8.25;;;11.90;99.90;;;;;;4975269;28;20034;-56
2024/01/04 00:37:07;;;;;;;10.57;5.25;;;11.70;99.90;;;;;;4975607;28;20147;-57
2024/01/04 00:39:32;;;;;;;6.13;3.78;;;11.60;99.90;;;;;;4975054;28;20125;-56
2024/01/04 00:41:58;;;;;;;6.43;3.03;;;11.50;99.90;;;;;;4974897;28;20063;-57
2024/01/04 00:46:59;;;;;;;8.25;2.95;;;11.40;99.90;;;;;;5077109;23;19929;-56
2024/01/04 00:52:10;;;;;;;11.23;4.10;;;11.60;99.90;;;;;;4975538;28;20067;-55
2024/01/04 00:54:36;;;;;;;8.68;4.43;;;11.20;99.90;;;;;;4975069;28;20038;-55
2024/01/04 00:57:02;;;;;;;7.88;4.93;;;11.00;99.90;;;;;;4974694;28;20060;-56
2024/01/04 00:59:27;;;;;;;7.90;5.03;;;10.60;99.90;;;;;;4974588;28;20159;-56
2024/01/04 01:01:53;;;;;;;7.43;3.97;;;10.30;99.90;;;;;;4975083;28;20031;-55
2024/01/04 01:04:19;;;;;;;4.57;3.13;;;10.10;99.90;;;;;;4974780;28;20039;-55
2024/01/04 01:06:44;;;;;;;11.63;7.70;;;10.10;99.90;;;;;;4974706;28;20118;-58
2024/01/04 01:09:10;;;;;;;7.60;4.43;;;10.10;99.90;;;;;;4974368;28;20031;-55
2024/01/04 01:11:36;;;;;;;8.00;5.18;;;10.20;99.90;;;;;;4974406;28;20018;-55
2024/01/04 01:14:02;;;;;;;9.77;5.63;;;10.10;99.90;;;;;;4974924;28;20081;-55
2024/01/04 01:16:28;;;;;;;8.77;5.38;;;10.10;99.90;;;;;;5190607;23;20399;-55
2024/01/04 01:18:53;;;;;;;9.38;4.47;;;10.10;99.90;;;;;;4955138;29;20039;-55
2024/01/04 01:21:20;;;;;;;12.23;6.85;;;;;;;;;;4954886;29;20042;-55
2024/01/04 01:23:45;;;;;;;12.75;9.05;;;9.50;99.90;;;;;;4955098;29;20031;-55
2024/01/04 01:26:11;;;;;;;12.57;7.80;;;9.50;99.90;;;;;;4954841;29;20402;-55
2024/01/04 01:28:37;;;;;;;10.73;5.10;;;9.50;99.90;;;;;;4954739;29;20032;-55
2024/01/04 01:31:02;;;;;;;14.63;8.35;;;9.50;99.90;;;;;;4936640;29;20036;-56
2024/01/04 01:33:28;;;;;;;12.48;7.43;;;9.40;99.90;;;;;;4954813;29;20023;-56
2024/01/04 01:35:54;;;;;;;9.52;5.53;;;9.50;99.90;;;;;;4954723;29;20028;-55
2024/01/04 01:38:20;;;;;;;14.90;9.98;;;9.70;99.90;;;;;;4920532;29;20073;-55
2024/01/04 01:40:46;;;;;;;5.55;3.63;;;9.80;99.90;;;;;;4954891;29;20042;-55
2024/01/04 01:43:12;;;;;;;4.70;3.20;;;10.00;99.90;;;;;;4936531;29;20043;-55
2024/01/04 01:45:38;;;;;;;6.05;3.00;;;10.30;99.90;;;;;;4954821;29;20078;-55
2024/01/04 01:48:05;;;;;;;5.63;2.83;;;10.30;99.90;;;;;;4954633;29;20433;-55
2024/01/04 01:50:32;;;;;;;3.22;1.55;;;10.30;99.90;;;;;;4904928;29;20043;-55
2024/01/04 01:52:58;;;;;;;3.50;2.40;;;10.50;99.90;;;;;;4954857;29;20031;-55
2024/01/04 01:55:25;;;;;;;6.15;2.65;;;10.60;99.90;;;;;;4954578;29;20038;-56
2024/01/04 01:57:51;;;;;;;5.53;2.35;;;10.50;99.90;;;;;;4936330;29;20066;-55
2024/01/04 02:00:18;;;;;;;2.88;1.52;;;10.50;99.90;;;;;;4954297;29;20039;-55
2024/01/04 02:02:47;;;;;;;4.80;2.00;;;10.50;99.90;;;;;;4954314;29;20135;-56
2024/01/04 02:05:13;;;;;;;5.03;2.22;;;10.60;99.90;;;;;;5186748;23;20462;-56
2024/01/04 02:10:13;;;;;;;3.75;2.28;;;10.80;99.90;;;;;;4970936;28;20050;-55
2024/01/04 02:12:39;;;;;;;3.25;2.10;;;10.90;99.90;;;;;;4923789;28;20093;-55
2024/01/04 02:15:07;;;;;;;2.92;1.60;;;11.00;99.90;;;;;;4971322;28;20085;-55
2024/01/04 02:17:34;;;;;;;4.30;2.20;;;11.00;99.90;;;;;;4893100;28;20101;-55
2024/01/04 02:19:59;;;;;;;7.63;4.65;;;10.90;99.90;;;;;;4972805;28;20039;-55
2024/01/04 02:22:25;;;;;;;9.18;4.38;;;10.80;99.90;;;;;;4973303;28;20031;-56
2024/01/04 02:24:51;;;;;;;4.47;2.47;;;10.80;99.90;;;;;;4973348;28;20027;-55
2024/01/04 02:27:17;;;;;;;3.75;1.48;;;10.70;99.90;;;;;;4973228;28;20089;-56
2024/01/04 02:29:43;;;;;;;6.35;4.00;;;10.70;99.90;;;;;;4973557;28;20478;-55
2024/01/04 02:32:09;;;;;;;5.20;3.25;;;10.60;99.90;;;;;;4973237;28;20059;-55
2024/01/04 02:34:35;;;;;;;3.92;1.80;;;10.50;99.90;;;;;;4973186;28;20041;-55
2024/01/04 02:37:00;;;;;;;2.08;1.23;;;10.30;99.90;;;;;;4973407;28;20449;-55
2024/01/04 02:39:26;;;;;;;2.50;1.20;;;10.20;99.90;;;;;;4973029;28;20043;-55
2024/01/04 02:41:52;;;;;;;1.10;0.68;;;10.20;99.90;;;;;;4973198;28;20057;-56
2024/01/04 02:44:18;;;;;;;4.07;1.15;;;10.30;99.90;;;;;;4973137;28;20026;-55
2024/01/04 02:46:43;;;;;;;4.93;1.02;;;10.20;99.90;;;;;;4962529;28;20514;-55
2024/01/04 02:49:09;;;;;;;2.88;1.20;;;10.20;99.90;;;;;;4905144;29;20042;-55
2024/01/04 02:51:35;;;;;;;1.23;1.10;;;10.20;99.90;;;;;;4953684;29;20584;-55
2024/01/04 02:54:01;;;;;;;1.65;0.95;;;10.30;99.90;;;;;;4953734;29;20023;-55
2024/01/04 02:56:26;;;;;;;1.40;0.73;;;10.40;99.90;;;;;;4953835;29;20154;-55
2024/01/04 02:58:52;;;;;;;1.40;0.88;;;10.30;99.90;;;;;;4904056;29;20035;-55
2024/01/04 03:01:22;;;;;;;2.97;1.00;;;10.30;99.90;;;;;;4953731;29;20039;-55
2024/01/04 03:03:51;;;;;;;2.13;1.05;;;10.20;99.90;;;;;;4953934;29;20114;-55
2024/01/04 03:06:27;;;;;;;1.88;1.10;;;10.20;99.90;;;;;;4954059;28;20458;-55
2024/01/04 03:08:53;;;;;;;2.00;1.00;;;10.30;99.90;;;;;;4953524;29;20051;-55
2024/01/04 03:11:19;;;;;;;2.92;1.48;;;10.30;99.90;;;;;;4953511;29;20718;-55
2024/01/04 03:13:48;;;;;;;3.05;2.15;;;10.30;99.90;;;;;;4953641;29;20027;-56
2024/01/04 03:16:15;;;;;;;2.55;1.10;;;10.30;99.90;;;;;;4894162;29;20045;-55
2024/01/04 03:18:40;;;;;;;1.52;0.93;;;10.20;99.90;;;;;;4894155;29;20737;-55
2024/01/04 03:21:06;;;;;;;2.75;1.30;;;10.20;99.90;;;;;;4894203;29;20051;-55
2024/01/04 03:23:32;;;;;;;1.88;1.00;;;10.20;99.90;;;;;;4894096;29;20033;-55
2024/01/04 03:25:58;;;;;;;3.70;1.98;;;10.20;99.90;;;;;;4894206;29;20049;-55
2024/01/04 03:28:23;;;;;;;2.20;1.33;;;10.20;99.90;;;;;;4894068;29;20495;-56
2024/01/04 03:30:49;;;;;;;2.55;1.30;;;10.30;99.90;;;;;;4894496;29;20041;-55
2024/01/04 03:33:15;;;;;;;3.53;1.20;;;10.30;99.90;;;;;;4897791;29;20045;-55
2024/01/04 03:35:41;;;;;;;3.58;1.23;;;10.30;99.90;;;;;;4881828;29;20068;-55
2024/01/04 03:38:06;;;;;;;2.20;1.45;;;10.30;99.90;;;;;;4897559;29;20099;-56
2024/01/04 03:40:32;;;;;;;4.45;2.10;;;10.30;99.90;;;;;;4897529;29;20088;-55
2024/01/04 03:42:58;;;;;;;3.50;1.98;;;;;;;;;;4897437;29;20057;-54
2024/01/04 03:45:25;;;;;;;4.35;2.22;;;10.50;99.90;;;;;;4897539;29;20504;-55
2024/01/04 03:47:50;;;;;;;4.30;1.80;;;10.70;99.90;;;;;;4943721;29;20046;-55
2024/01/04 03:50:16;;;;;;;5.78;2.00;;;10.80;99.90;;;;;;4956876;29;20470;-55
2024/01/04 03:52:42;;;;;;;6.55;3.30;;;;;;;;;;4922688;29;20073;-55
2024/01/04 03:55:09;;;;;;;6.78;3.50;;;;;;;;;;4956734;29;20063;-55
2024/01/04 03:57:35;;;;;;;12.80;3.90;;;;;;;;;;4956541;29;20024;-55
2024/01/04 04:00:04;;;;;;;14.77;3.78;;;;;;;;;;4907224;29;20054;-55
2024/01/04 04:02:30;;;;;;;10.75;3.25;;;;;;;;;;4956510;29;20038;-55
2024/01/04 04:04:56;;;;;;;8.82;4.25;;;;;;;;;;4956589;29;20070;-55
2024/01/04 04:07:23;;;;;;;7.30;3.58;;;;;;;;;;4956429;29;20085;-55
2024/01/04 04:09:49;;;;;;;8.73;3.10;;;;;;;;;;4956135;29;20113;-55
2024/01/04 04:12:16;;;;;;;5.70;2.40;;;;;;;;;;4956616;28;20118;-55
2024/01/04 04:14:42;;;;;;;6.80;2.97;;;;;;;;;;4956284;29;20035;-55
2024/01/04 04:17:08;;;;;;;6.47;2.78;;;;;;;;;;4955434;29;20030;-55
2024/01/04 04:19:34;;;;;;;6.63;2.70;;;;;;;;;;4971240;28;20043;-54
2024/01/04 04:22:01;;;;;;;4.97;2.45;;;;;;;;;;4941609;28;20102;-55
2024/01/04 04:24:27;;;;;;;5.63;2.70;;;;;;;;;;4975565;28;20034;-54
2024/01/04 04:26:53;;;;;;;4.35;2.22;;;;;;;;;;4975311;28;20023;-54
2024/01/04 04:29:19;;;;;;;6.28;3.13;;;;;;;;;;4975312;28;20493;-54
2024/01/04 04:31:48;;;;;;;6.15;2.55;;;;;;;;;;4975595;28;20034;-54
2024/01/04 04:34:14;;;;;;;6.65;3.67;;;;;;;;;;4975295;28;20034;-55
2024/01/04 04:36:40;;;;;;;5.85;3.30;;;;;;;;;;4975091;28;20035;-55
2024/01/04 04:39:08;;;;;;;5.93;3.17;;;;;;;;;;4974990;28;20529;-54
2024/01/04 04:41:34;;;;;;;7.85;3.13;;;;;;;;;;4975012;28;20038;-55
2024/01/04 04:44:00;;;;;;;6.75;3.05;;;;;;;;;;4974855;28;20034;-55
2024/01/04 04:46:26;;;;;;;6.65;2.58;;;;;;;;;;4974903;28;20034;-54
2024/01/04 04:48:55;;;;;;;4.30;2.35;;;;;;;;;;4974975;28;20078;-54
2024/01/04 04:51:25;;;;;;;4.22;2.17;;;12.50;99.90;;;;;;4974832;28;20089;-54
2024/01/04 04:53:51;;;;;;;5.28;2.50;;;12.80;99.90;;;;;;4975098;28;20031;-55
2024/01/04 04:56:17;;;;;;;4.15;2.20;;;12.60;99.90;;;;;;4974847;28;20049;-54
2024/01/04 04:58:43;;;;;;;7.13;2.00;;;12.60;99.90;;;;;;4974703;28;20066;-54
2024/01/04 05:01:09;;;;;;;3.58;1.80;;;12.60;99.90;;;;;;4940665;28;20050;-55
2024/01/04 05:03:36;;;;;;;3.58;2.15;;;12.60;99.90;;;;;;4975048;28;20577;-56
2024/01/04 05:06:01;;;;;;;4.85;2.45;;;12.60;99.90;;;;;;4974821;28;20025;-56
2024/01/04 05:08:27;;;;;;;5.57;2.88;;;12.60;99.90;;;;;;4974497;28;20525;-54
2024/01/04 05:10:53;;;;;;;6.53;2.70;;;12.70;99.90;;;;;;4970052;28;20111;-55
2024/01/04 05:13:19;;;;;;;4.97;2.00;;;12.70;99.90;;;;;;4954944;29;20027;-55
2024/01/04 05:15:44;;;;;;;3.03;1.75;;;12.70;99.90;;;;;;4957904;28;20038;-55
2024/01/04 05:18:10;;;;;;;2.25;1.33;;;12.60;99.90;;;;;;4955024;28;20101;-54
2024/01/04 05:20:37;;;;;;;3.75;1.38;;;12.60;99.90;;;;;;4955319;28;20035;-55
2024/01/04 05:23:02;;;;;;;2.67;1.45;;;12.70;99.90;;;;;;4955160;29;20545;-55
2024/01/04 05:25:28;;;;;;;4.45;1.65;;;12.60;99.90;;;;;;4954896;29;20055;-54
2024/01/04 05:27:54;;;;;;;7.00;2.15;;;12.60;99.90;;;;;;4954951;29;20135;-54
2024/01/04 05:30:20;;;;;;;3.65;1.40;;;12.80;99.90;;;;;;4937610;29;20110;-55
2024/01/04 05:32:45;;;;;;;3.65;1.60;;;12.70;99.90;;;;;;4955047;29;20031;-55
2024/01/04 05:35:12;;;;;;;2.92;1.40;;;12.80;99.90;;;;;;4954905;29;20031;-55
2024/01/04 05:37:38;;;;;;;2.63;1.73;;;12.70;99.90;;;;;;4954837;29;20039;-55
2024/01/04 05:40:05;;;;;;;3.08;1.85;;;12.60;99.90;;;;;;4954747;29;20387;-55
2024/01/04 05:42:30;;;;;;;7.75;2.00;;;12.60;99.90;;;;;;4954669;28;20074;-55
2024/01/04 05:44:56;;;;;;;3.65;1.83;;;12.60;99.90;;;;;;4954836;29;20438;-55
2024/01/04 05:47:22;;;;;;;3.15;1.60;;;;;;;;;;4954700;29;20111;-54
2024/01/04 05:49:48;;;;;;;4.10;1.83;;;12.90;99.90;;;;;;4954724;29;20038;-55
2024/01/04 05:52:13;;;;;;;5.63;1.25;;;12.80;99.90;;;;;;4954470;29;20444;-54
2024/01/04 05:54:39;;;;;;;7.60;2.53;;;12.80;99.90;;;;;;4953772;28;20038;-55
2024/01/04 05:57:06;;;;;;;8.88;3.88;;;13.00;99.30;;;;;;4954473;28;20595;-55
2024/01/04 05:59:31;;;;;;;8.43;3.30;;;13.20;99.00;;;;;;4954337;29;20455;-55
2024/01/04 06:01:57;;;;;;;14.90;7.70;;;13.20;98.80;;;;;;4954287;29;20027;-55
2024/01/04 06:04:23;;;;;;;16.15;10.27;;;13.30;98.60;;;;;;4954419;28;20023;-55
2024/01/04 06:06:48;;;;;;;12.18;7.53;;;13.30;98.70;;;;;;4954279;29;20031;-55
2024/01/04 06:09:20;;;;;;;15.02;9.90;;;13.20;98.80;;;;;;4954151;29;20090;-55
2024/01/04 06:11:46;;;;;;;23.00;14.20;;;13.30;98.40;;;;;;4894881;29;20041;-55
2024/01/04 06:14:12;;;;;;;26.95;14.45;;;13.40;98.20;;;;;;4894563;29;20045;-55
2024/01/04 06:16:38;;;;;;;14.02;8.38;;;13.40;98.20;;;;;;4894847;29;20045;-55
2024/01/04 06:19:04;;;;;;;15.38;7.75;;;13.40;98.20;;;;;;4894530;29;20039;-55
2024/01/04 06:21:30;;;;;;;7.68;4.35;;;13.50;98.20;;;;;;4894793;29;20061;-55
2024/01/04 06:23:56;;;;;;;7.35;4.22;;;13.50;98.40;;;;;;4894655;29;20779;-56
2024/01/04 06:26:23;;;;;;;9.35;4.40;;;13.50;98.50;;;;;;4894600;29;20052;-55
2024/01/04 06:28:49;;;;;;;11.40;4.80;;;13.50;98.70;;;;;;4894703;29;20048;-55
2024/01/04 06:31:15;;;;;;;6.97;3.72;;;13.50;98.80;;;;;;4894419;29;20445;-55
2024/01/04 06:33:41;;;;;;;4.10;2.05;;;13.60;98.80;;;;;;4894654;29;20177;-55
2024/01/04 06:36:07;;;;;;;6.45;2.63;;;13.60;98.70;;;;;;4894457;29;20121;-55
2024/01/04 06:38:35;;;;;;;8.68;4.55;;;13.60;98.70;;;;;;4894404;29;20039;-55
2024/01/04 06:41:03;;;;;;;6.28;3.30;;;13.70;98.50;;;;;;4901846;29;20065;-55
2024/01/04 06:43:30;;;;;;;20.08;15.18;;;13.70;98.60;;;;;;4963468;28;20038;-55
2024/01/04 06:45:57;;;;;;;15.25;7.43;;;13.50;98.80;;;;;;4957837;28;20042;-55
2024/01/04 06:48:23;;;;;;;18.23;10.75;;;13.30;98.70;;;;;;4953829;29;20036;-55
2024/01/04 06:50:49;;;;;;;8.25;5.53;;;13.20;98.80;;;;;;4953938;29;20467;-55
2024/01/04 06:53:15;;;;;;;7.57;5.18;;;13.10;98.90;;;;;;4953664;29;20568;-55
2024/01/04 06:55:41;;;;;;;11.65;9.00;;;13.20;98.80;;;;;;4953943;29;20019;-54
2024/01/04 06:58:09;;;;;;;17.33;12.68;;;13.30;98.40;;;;;;4953977;29;20042;-55
2024/01/04 07:00:38;;;;;;;11.30;7.68;;;13.40;98.30;;;;;;4953780;29;20101;-55
2024/01/04 07:03:04;;;;;;;9.98;6.70;;;13.40;98.20;;;;;;4953759;28;20027;-56
2024/01/04 07:05:30;;;;;;;7.80;5.90;;;13.30;98.10;;;;;;4935546;28;20475;-55
2024/01/04 07:07:56;;;;;;;15.43;9.60;;;13.40;98.20;;;;;;4957014;29;20495;-55
2024/01/04 07:10:22;;;;;;;26.05;13.57;;;13.50;98.10;;;;;;4957516;29;20035;-55
2024/01/04 07:12:48;;;;;;;65.25;45.88;;;13.50;97.90;;;;;;4923501;29;20395;-55
2024/01/04 07:15:13;;;;;;;35.00;21.60;;;13.50;98.00;;;;;;4912710;28;20050;-53
2024/01/04 07:17:40;;;;;;;22.10;13.75;;;;;;;;;;4942378;28;20039;-56
2024/01/04 07:20:07;;;;;;;28.98;15.50;;;13.70;97.80;;;;;;4970192;28;20038;-55
2024/01/04 07:22:35;;;;;;;23.25;13.40;;;13.80;98.10;;;;;;4925154;28;20118;-52
2024/01/04 07:25:01;;;;;;;15.75;10.02;;;13.80;98.10;;;;;;4959964;28;20037;-54
2024/01/04 07:27:30;;;;;;;11.90;5.80;;;13.80;98.20;;;;;;4957258;29;20034;-54
2024/01/04 07:29:57;;;;;;;9.65;5.85;;;13.90;97.90;;;;;;4957150;29;20027;-53
2024/01/04 07:32:24;;;;;;;14.70;8.45;;;13.90;98.20;;;;;;4907075;29;20073;-54
2024/01/04 07:34:50;;;;;;;7.07;3.60;;;13.90;99.10;;;;;;4957045;29;20454;-54
2024/01/04 07:37:16;;;;;;;217.18;99.78;;;13.80;99.70;;;;;;4922688;29;20035;-54
2024/01/04 07:39:42;;;;;;;31.42;16.80;;;13.80;99.40;;;;;;4957010;29;20539;-54
2024/01/04 07:42:09;;;;;;;59.60;29.92;;;13.60;99.90;;;;;;4922775;29;20045;-54
2024/01/04 07:44:35;;;;;;;44.42;23.13;;;13.50;99.90;;;;;;4956935;29;20086;-54
2024/01/04 07:47:01;;;;;;;23.05;12.80;;;13.40;99.90;;;;;;4967711;28;20035;-54
2024/01/04 07:49:27;;;;;;;10.95;7.38;;;13.40;99.90;;;;;;4976476;28;20109;-54
2024/01/04 07:51:52;;;;;;;25.70;16.70;;;13.30;99.90;;;;;;4976072;28;20393;-54
2024/01/04 07:54:19;;;;;;;31.15;19.92;;;13.30;99.90;;;;;;4975553;28;20026;-54
2024/01/04 07:56:45;;;;;;;40.17;22.80;;;13.30;99.90;;;;;;4976070;28;20049;-54
2024/01/04 07:59:11;;;;;;;110.10;46.63;;;13.30;99.90;;;;;;4975685;28;20474;-54
2024/01/04 08:01:36;;;;;;;13.02;8.63;;;13.30;99.90;;;;;;4975762;28;20034;-54
2024/01/04 08:04:03;;;;;;;13.13;7.63;;;13.40;99.90;;;;;;4975829;28;20603;-54
2024/01/04 08:06:30;;;;;;;10.50;6.63;;;13.50;99.90;;;;;;4975866;28;20035;-54
2024/01/04 08:08:56;;;;;;;6.25;3.67;;;13.50;99.90;;;;;;4975442;28;20573;-54
2024/01/04 08:11:23;;;;;;;5.95;2.55;;;13.60;99.90;;;;;;4975738;28;20114;-54
2024/01/04 08:13:52;;;;;;;2.38;1.48;;;13.60;99.90;;;;;;4975617;28;20031;-54
2024/01/04 08:16:18;;;;;;;3.00;1.55;;;13.70;99.90;;;;;;4957183;28;20042;-54
2024/01/04 08:18:44;;;;;;;3.38;1.83;;;13.80;99.90;;;;;;4974624;28;20038;-54
2024/01/04 08:21:10;;;;;;;4.03;1.42;;;13.80;99.90;;;;;;4975436;28;20046;-54
2024/01/04 08:23:40;;;;;;;4.22;1.38;;;13.80;99.90;;;;;;4975355;28;20041;-54
2024/01/04 08:26:06;;;;;;;4.55;2.13;;;13.80;99.90;;;;;;4975310;28;20042;-54
2024/01/04 08:28:31;;;;;;;3.13;1.67;;;13.80;99.90;;;;;;4975203;28;20031;-54
2024/01/04 08:30:57;;;;;;;5.88;1.77;;;13.90;99.90;;;;;;4975491;28;20062;-54
2024/01/04 08:33:23;;;;;;;4.63;2.45;;;13.90;99.90;;;;;;4963407;28;20038;-54
2024/01/04 08:35:48;;;;;;;4.57;2.83;;;13.90;99.90;;;;;;4958269;28;20023;-54
2024/01/04 08:38:14;;;;;;;6.05;3.10;;;13.90;99.90;;;;;;4966171;28;20043;-54
2024/01/04 08:40:40;;;;;;;4.85;1.70;;;14.00;99.90;;;;;;4966214;28;20042;-54
2024/01/04 08:43:08;;;;;;;4.82;2.70;;;14.00;99.90;;;;;;4930970;28;20049;-54
2024/01/04 08:45:34;;;;;;;87.97;28.83;;;14.00;99.90;;;;;;4965632;28;20130;-53
2024/01/04 09:00:39;;;;;;;39.88;25.88;;;13.80;99.90;;;;;;5104808;27;20404;-53
2024/01/04 09:03:04;;;;;;;31.90;18.30;;;13.60;99.90;;;;;;5065450;28;20047;-53
2024/01/04 09:05:31;;;;;;;25.20;17.50;;;13.60;99.90;;;;;;5082469;28;20094;-53
2024/01/04 09:07:56;;;;;;;24.75;16.85;;;13.50;99.90;;;;;;5082337;28;20385;-53
2024/01/04 09:10:24;;;;;;;58.75;26.38;;;13.50;99.90;;;;;;5065641;28;20071;-53
2024/01/04 09:12:51;;;;;;;32.08;18.58;;;13.60;99.90;;;;;;5066687;28;20562;-53
2024/01/04 09:15:17;;;;;;;35.58;20.92;;;13.50;99.90;;;;;;5082926;28;20056;-53
2024/01/04 09:17:43;;;;;;;44.15;24.08;;;13.60;99.90;;;;;;5048521;28;20677;-53
2024/01/04 09:20:09;;;;;;;23.73;12.88;;;13.50;99.90;;;;;;5083102;28;20043;-53
2024/01/04 09:22:35;;;;;;;20.10;10.75;;;13.70;99.90;;;;;;5086336;28;20021;-53
2024/01/04 09:25:03;;;;;;;14.20;6.97;;;;;;;;;;5084635;28;20036;-53
2024/01/04 09:27:29;;;;;;;9.60;5.85;;;13.80;99.90;;;;;;5087292;28;20109;-54
2024/01/04 09:29:55;;;;;;;27.67;16.42;;;13.80;99.90;;;;;;5087986;28;20036;-53
2024/01/04 09:32:21;;;;;;;44.38;26.58;;;13.90;99.90;;;;;;5087393;28;20438;-54
2024/01/04 09:34:47;;;;;;;51.47;30.85;;;13.90;99.90;;;;;;5087687;28;20101;-53
2024/01/04 09:37:13;;;;;;;49.28;29.05;;;13.90;99.90;;;;;;5087899;28;20165;-53
2024/01/04 09:39:40;;;;;;;26.10;14.75;;;13.90;99.90;;;;;;5087111;28;20062;-53
2024/01/04 09:42:09;;;;;;;39.20;23.20;;;13.90;99.90;;;;;;5086861;28;20055;-53
2024/01/04 09:44:35;;;;;;;15.15;9.07;;;13.90;99.90;;;;;;5087681;28;20189;-53
2024/01/04 09:47:07;;;;;;;18.48;10.60;;;14.00;99.90;;;;;;5086979;28;20615;-54
2024/01/04 09:49:33;;;;;;;19.17;9.15;;;14.00;99.90;;;;;;5051633;28;20260;-53
2024/01/04 09:51:59;;;;;;;18.85;8.98;;;14.00;99.90;;;;;;5086306;28;20035;-53
2024/01/04 09:54:29;;;;;;;11.48;4.47;;;14.10;99.90;;;;;;5087129;28;20363;-53
2024/01/04 09:56:55;;;;;;;13.88;8.68;;;14.10;99.90;;;;;;5086812;28;20040;-54
2024/01/04 09:59:21;;;;;;;5.68;3.10;;;14.00;99.90;;;;;;5085166;28;20067;-53
2024/01/04 10:01:48;;;;;;;4.13;2.75;;;13.90;99.90;;;;;;5073649;28;20064;-53
2024/01/04 10:04:16;;;;;;;3.92;2.40;;;13.90;99.90;;;;;;5073073;28;20499;-53
2024/01/04 10:06:46;;;;;;;3.92;2.08;;;13.80;99.90;;;;;;5073540;28;20033;-53
2024/01/04 10:09:26;;;;;;;4.80;1.60;;;13.80;99.90;;;;;;5072369;28;20037;-53
2024/01/04 10:12:02;;;;;;;1.65;0.88;;;13.80;99.90;;;;;;5070464;28;20111;-54
2024/01/04 10:14:28;;;;;;;3.42;1.00;;;13.80;99.90;;;;;;5070724;28;20036;-53
2024/01/04 10:16:56;;;;;;;2.08;1.05;;;13.70;99.90;;;;;;5072542;28;20128;-53
2024/01/04 10:19:23;;;;;;;1.52;1.05;;;13.70;99.90;;;;;;5072618;28;20041;-53
2024/01/04 10:21:49;;;;;;;5.10;1.77;;;13.80;99.90;;;;;;5072619;28;20024;-53
2024/01/04 10:24:22;;;;;;;16.85;8.02;;;13.80;99.90;;;;;;5072154;28;20028;-52
2024/01/04 10:26:55;;;;;;;20.10;8.10;;;13.80;99.90;;;;;;5072412;28;20047;-53
2024/01/04 10:29:23;;;;;;;8.25;4.10;;;13.80;99.90;;;;;;5071340;28;20044;-53
2024/01/04 10:31:58;;;;;;;8.68;4.07;;;13.80;99.90;;;;;;5072341;28;20044;-53
2024/01/04 10:34:25;;;;;;;2.70;1.70;;;13.90;99.90;;;;;;5072297;28;20028;-53
2024/01/04 10:36:51;;;;;;;5.97;3.33;;;13.90;99.90;;;;;;5071836;28;20032;-53
2024/01/04 10:39:20;;;;;;;3.70;2.25;;;13.90;99.90;;;;;;5036393;28;20563;-53
2024/01/04 10:42:01;;;;;;;2.90;1.90;;;14.00;99.90;;;;;;5072603;28;20458;-53
2024/01/04 10:44:32;;;;;;;4.00;2.08;;;14.10;99.90;;;;;;5072479;28;20031;-53
2024/01/04 10:46:59;;;;;;;4.40;1.88;;;14.10;99.90;;;;;;5072356;28;20028;-53
2024/01/04 10:49:26;;;;;;;2.00;1.52;;;14.10;99.90;;;;;;5066986;28;20040;-53
2024/01/04 10:52:16;;;;;;;3.85;2.47;;;14.10;99.90;;;;;;5047862;28;20044;-53
2024/01/04 10:54:43;;;;;;;7.18;3.53;;;14.20;99.90;;;;;;5049050;28;20036;-53
2024/01/04 10:57:09;;;;;;;6.95;4.43;;;14.20;99.90;;;;;;5048994;28;20235;-53
2024/01/04 10:59:36;;;;;;;7.15;3.30;;;14.20;99.90;;;;;;5048063;28;20119;-54
2024/01/04 11:02:03;;;;;;;12.80;5.80;;;14.20;99.90;;;;;;5048973;28;20029;-53
2024/01/04 11:04:30;;;;;;;7.93;3.83;;;14.30;99.90;;;;;;5048709;28;20032;-54
2024/01/04 11:06:57;;;;;;;10.75;5.85;;;14.50;99.90;;;;;;5063817;28;20029;-53
2024/01/04 11:09:24;;;;;;;10.23;4.93;;;;;;;;;;5048888;28;20049;-54
2024/01/04 11:11:52;;;;;;;13.38;5.85;;;14.80;99.90;;;;;;5048356;28;20566;-53
2024/01/04 11:14:21;;;;;;;17.60;8.43;;;15.00;99.90;;;;;;5048799;28;20037;-53
2024/01/04 11:17:02;;;;;;;6.90;3.45;;;15.10;99.90;;;;;;5045499;28;20046;-53
2024/01/04 11:20:00;;;;;;;13.25;6.20;;;15.10;99.90;;;;;;5049155;28;20447;-54
2024/01/04 11:22:59;;;;;;;8.90;3.88;;;15.00;99.90;;;;;;5048777;28;20087;-53
2024/01/04 11:25:34;;;;;;;5.18;3.97;;;;;;;;;;5047174;28;20790;-53
2024/01/04 11:28:03;;;;;;;6.43;4.30;;;16.20;99.90;;;;;;5042780;28;20032;-53
2024/01/04 11:30:29;;;;;;;4.85;2.80;;;16.20;99.90;;;;;;5054388;28;20049;-54
2024/01/04 11:32:55;;;;;;;3.83;2.90;;;17.00;98.60;;;;;;5063415;28;20483;-54
2024/01/04 11:35:21;;;;;;;3.40;2.50;;;17.00;99.00;;;;;;5068908;28;20041;-54
2024/01/04 11:37:51;;;;;;;7.63;5.43;;;16.90;98.40;;;;;;5035185;28;20051;-54
2024/01/04 11:40:26;;;;;;;6.80;3.70;;;17.90;99.40;;;;;;5069236;28;20566;-53
2024/01/04 11:42:52;;;;;;;7.82;3.65;;;18.70;97.40;;;;;;5069215;28;20037;-53
2024/01/04 11:45:18;;;;;;;5.88;2.90;;;18.80;97.70;;;;;;5070486;28;20043;-53
2024/01/04 11:47:50;;;;;;;3.50;2.28;;;;;;;;;;5071831;28;20112;-53
2024/01/04 11:50:17;;;;;;;4.88;3.20;;;;;;;;;;5071982;28;20502;-53
2024/01/04 11:52:45;;;;;;;4.03;2.17;;;;;;;;;;5071598;28;20032;-53
2024/01/04 11:55:12;;;;;;;4.63;2.13;;;;;;;;;;5071812;28;20044;-51
2024/01/04 11:57:39;;;;;;;4.28;2.58;;;;;;;;;;5071628;28;20055;-51
2024/01/04 12:00:15;;;;;;;3.88;2.85;;;22.60;93.90;;;;;;5071627;28;20403;-50
2024/01/04 12:02:41;;;;;;;5.35;3.03;;;22.80;93.90;;;;;;5052394;28;20044;-51
2024/01/04 12:05:08;;;;;;;10.43;3.35;;;22.80;93.00;;;;;;5071466;28;20024;-51
2024/01/04 12:07:36;;;;;;;9.13;3.63;;;23.10;90.60;;;;;;5068973;28;20037;-51
2024/01/04 12:10:02;;;;;;;7.95;3.67;;;23.20;90.00;;;;;;5071416;28;20491;-51
2024/01/04 12:12:27;;;;;;;4.35;3.03;;;22.90;89.30;;;;;;5035487;28;20048;-51
2024/01/04 12:14:53;;;;;;;4.70;2.80;;;22.20;89.50;;;;;;5085965;28;20182;-51
2024/01/04 12:17:19;;;;;;;5.05;2.80;;;21.60;90.00;;;;;;5085774;28;20037;-51
2024/01/04 12:19:47;;;;;;;6.25;2.83;;;21.20;90.20;;;;;;5070955;28;20033;-51
2024/01/04 12:22:13;;;;;;;4.47;2.40;;;21.10;90.20;;;;;;5070927;28;20480;-51
2024/01/04 12:24:41;;;;;;;3.78;2.30;;;21.00;90.40;;;;;;5071035;28;20036;-51
2024/01/04 12:27:08;;;;;;;3.40;2.33;;;20.80;90.20;;;;;;5071442;28;20036;-51
2024/01/04 12:29:34;;;;;;;5.53;2.58;;;20.50;90.60;;;;;;5071032;28;20037;-51
2024/01/04 12:32:00;;;;;;;6.25;2.35;;;20.40;90.70;;;;;;5071234;28;20496;-51
2024/01/04 12:34:25;;;;;;;5.65;4.47;;;20.20;90.70;;;;;;5051942;28;20086;-51
2024/01/04 12:36:51;;;;;;;5.28;3.17;;;20.40;91.10;;;;;;5052013;28;20044;-51
2024/01/04 12:39:17;;;;;;;5.40;2.50;;;20.60;90.90;;;;;;5052076;28;20489;-51
2024/01/04 12:41:44;;;;;;;8.38;3.97;;;20.70;90.40;;;;;;5070523;28;20043;-50
2024/01/04 12:44:11;;;;;;;23.45;15.32;;;20.80;90.60;;;;;;5070944;28;20035;-51
2024/01/04 12:46:37;;;;;;;8.90;5.13;;;20.90;90.60;;;;;;5070826;28;20039;-51
2024/01/04 12:49:09;;;;;;;8.52;5.47;;;20.80;90.50;;;;;;5051738;28;20056;-51
2024/01/04 12:51:40;;;;;;;7.10;4.40;;;20.80;90.50;;;;;;5068496;28;20052;-51
2024/01/04 12:54:10;;;;;;;5.13;4.00;;;20.60;90.80;;;;;;5071456;28;20088;-50
2024/01/04 12:56:37;;;;;;;8.23;3.50;;;20.50;90.90;;;;;;5070170;28;20032;-50
2024/01/04 12:59:04;;;;;;;8.07;3.75;;;20.60;90.80;;;;;;5061210;28;20400;-51
2024/01/04 13:01:33;;;;;;;10.48;4.80;;;20.30;90.90;;;;;;5050721;28;20516;-51
2024/01/04 13:03:59;;;;;;;7.07;2.88;;;20.50;91.50;;;;;;5054690;28;20090;-51
2024/01/04 13:06:26;;;;;;;9.35;4.10;;;20.60;90.80;;;;;;5059579;28;20464;-51
2024/01/04 13:08:52;;;;;;;6.80;2.67;;;20.30;90.90;;;;;;5031658;28;20109;-51
2024/01/04 13:11:18;;;;;;;9.02;4.07;;;20.50;90.90;;;;;;5050766;28;20460;-51
2024/01/04 13:13:49;;;;;;;9.60;4.80;;;20.60;90.80;;;;;;5050769;28;20029;-51